Time;durP1;ratioP1;P1;durP2;ratioP2;P2;SDS_P1;SDS_P2;PMS_P1;PMS_P2;Temp;Humidity;BMP_temperature;BMP_pressure;BME280_temperature;BME280_humidity;BME280_pressure;Samples;Min_cycle;Max_cycle;Signal;HPM_P1;HPM_P2
2021/12/04 00:00:00;;;;;;;22.20;14.57;;;;;;;2.04;100.00;99771.00;4883684;29;20111;-90
2021/12/04 00:02:29;;;;;;;22.15;15.23;;;;;;;2.17;100.00;99791.72;4884296;29;20437;-90
2021/12/04 00:04:59;;;;;;;20.80;15.00;;;;;;;2.01;100.00;99769.50;4883776;29;20462;-90
2021/12/04 00:07:26;;;;;;;21.10;14.88;;;;;;;2.44;100.00;99841.91;4884478;29;20761;-90
2021/12/04 00:09:57;;;;;;;21.30;15.50;;;;;;;2.61;100.00;99847.88;4916663;29;20107;-89
2021/12/04 00:12:23;;;;;;;23.58;14.98;;;;;;;2.45;100.00;99814.13;4869675;29;20029;-89
2021/12/04 00:14:49;;;;;;;20.52;14.65;;;;;;;2.27;100.00;99768.16;4898947;29;20083;-88
2021/12/04 00:17:15;;;;;;;23.30;14.35;;;;;;;2.25;100.00;99768.34;4868402;29;20024;-89
2021/12/04 00:19:40;;;;;;;18.92;13.20;;;;;;;2.68;100.00;99826.53;4899326;29;20539;-90
2021/12/04 00:22:06;;;;;;;21.02;14.13;;;;;;;2.66;100.00;99828.56;4899156;29;20028;-89
2021/12/04 00:24:35;;;;;;;19.10;13.88;;;;;;;2.65;100.00;99816.19;4868573;29;20111;-89
2021/12/04 00:27:01;;;;;;;21.70;14.35;;;;;;;2.67;100.00;99827.53;4868239;29;20039;-90
2021/12/04 00:29:26;;;;;;;19.95;13.93;;;;;;;2.68;100.00;99829.19;4886131;29;20024;-89
2021/12/04 00:31:58;;;;;;;16.88;13.13;;;;;;;2.52;100.00;99797.28;4902573;29;20374;-89
2021/12/04 00:34:26;;;;;;;17.98;13.02;;;;;;;2.71;100.00;99830.69;4888599;29;20068;-89
2021/12/04 00:50:24;;;;;;;17.77;13.05;;;;;;;2.76;100.00;99809.50;4918865;29;20136;-91
2021/12/04 00:52:54;;;;;;;20.02;14.13;;;;;;;2.33;100.00;99740.63;4887605;29;20402;-91
2021/12/04 00:55:20;;;;;;;20.33;14.82;;;;;;;2.77;100.00;99808.50;4887902;29;20136;-91
2021/12/04 00:57:45;;;;;;;19.60;14.95;;;;;;;2.74;100.00;99800.84;4887641;29;20127;-90
2021/12/04 01:00:14;;;;;;;18.88;14.07;;;;;;;2.08;100.00;99705.34;4887705;29;20473;-91
2021/12/04 01:02:43;;;;;;;19.08;13.80;;;;;;;2.15;100.00;99705.44;4888209;29;20122;-92
2021/12/04 01:05:12;;;;;;;19.50;14.57;;;;;;;2.10;100.00;99692.63;4903649;29;20023;-91
2021/12/04 01:07:42;;;;;;;21.40;16.02;;;;;;;2.81;100.00;99813.28;4903540;29;20032;-91
2021/12/04 01:10:11;;;;;;;18.50;14.95;;;;;;;2.75;100.00;99797.16;4873005;29;20047;-91
2021/12/04 01:12:37;;;;;;;20.30;15.35;;;;;;;2.52;100.00;99773.19;4903477;29;20028;-91
2021/12/04 01:15:07;;;;;;;22.05;15.00;;;;;;;2.12;100.00;99705.81;4903765;29;20048;-91
2021/12/04 01:17:36;;;;;;;19.63;15.60;;;;;;;2.58;100.00;99784.00;4903626;29;20028;-91
2021/12/04 01:20:04;;;;;;;20.25;14.57;;;;;;;2.59;100.00;99782.13;4903601;29;20469;-91
2021/12/04 01:22:33;;;;;;;19.02;14.80;;;;;;;2.55;100.00;99770.94;4904216;29;20466;-91
2021/12/04 01:25:00;;;;;;;20.92;15.57;;;;;;;2.59;100.00;99763.38;4902947;29;20477;-91
2021/12/04 01:27:28;;;;;;;20.95;15.93;;;;;;;2.72;100.00;99795.66;4903490;29;20060;-91
2021/12/04 01:29:55;;;;;;;20.77;15.50;;;;;;;2.20;100.00;99703.03;4903793;29;20022;-91
2021/12/04 01:32:21;;;;;;;19.80;14.90;;;;;;;2.62;100.00;99776.41;4903030;29;20027;-91
2021/12/04 01:34:47;;;;;;;18.70;14.13;;;;;;;2.18;100.00;99689.84;4903465;29;20389;-91
2021/12/04 01:37:13;;;;;;;19.40;14.80;;;;;;;2.38;100.00;99718.69;4902495;29;20028;-90
2021/12/04 01:39:38;;;;;;;19.40;14.38;;;;;;;2.18;100.00;99686.34;4870672;29;20032;-91
2021/12/04 01:42:04;;;;;;;19.38;14.70;;;;;;;2.62;100.00;99752.28;4902028;29;20023;-90
2021/12/04 01:44:33;;;;;;;18.25;14.00;;;;;;;2.61;100.00;99762.19;4886849;29;20079;-90
2021/12/04 01:46:59;;;;;;;18.15;14.50;;;;;;;2.59;100.00;99752.69;4872100;29;20484;-90
2021/12/04 01:49:27;;;;;;;18.38;13.75;;;;;;;2.18;100.00;99689.84;4887129;29;20418;-90
2021/12/04 01:51:56;;;;;;;19.23;13.98;;;;;;;2.65;100.00;99761.81;4898747;29;20048;-91
2021/12/04 01:54:33;;;;;;;20.60;14.35;;;;;;;2.91;100.00;99798.72;4883963;29;20063;-90
2021/12/04 01:56:59;;;;;;;18.23;14.02;;;;;;;2.69;100.00;99755.03;4899401;29;20024;-90
2021/12/04 01:59:24;;;;;;;18.05;13.90;;;;;;;2.90;100.00;99792.53;4914432;29;20119;-90
2021/12/04 02:01:50;;;;;;;19.20;14.15;;;;;;;2.36;100.00;99702.81;4899232;29;20158;-90
2021/12/04 02:04:16;;;;;;;21.77;14.63;;;;;;;2.74;100.00;99755.28;4899293;29;20036;-91
2021/12/04 02:06:42;;;;;;;19.33;13.90;;;;;;;2.24;100.00;99683.75;4899543;29;20056;-91
2021/12/04 02:09:11;;;;;;;19.65;14.98;;;;;;;2.31;100.00;99697.19;4884410;29;20024;-91
2021/12/04 02:11:43;;;;;;;17.58;13.68;;;;;;;2.92;100.00;99778.97;4909047;29;20049;-90
2021/12/04 02:14:13;;;;;;;18.60;14.43;;;;;;;2.46;100.00;99700.63;4876850;29;20056;-91
2021/12/04 02:16:39;;;;;;;18.27;13.15;;;;;;;2.32;100.00;99664.06;4884115;29;20389;-91
2021/12/04 02:19:05;;;;;;;19.55;14.70;;;;;;;2.30;100.00;99652.69;4883608;29;20123;-91
2021/12/04 02:21:31;;;;;;;20.48;14.50;;;;;;;2.41;100.00;99656.72;4899059;29;20032;-91
2021/12/04 02:23:57;;;;;;;20.52;14.70;;;;;;;2.54;100.00;99677.41;4898642;29;20020;-89
2021/12/04 02:26:23;;;;;;;21.95;14.85;;;;;;;2.69;100.00;99696.09;4883210;29;20043;-91
2021/12/04 02:28:49;;;;;;;21.17;14.93;;;;;;;2.17;100.00;99617.75;4898525;29;20044;-91
2021/12/04 02:31:15;;;;;;;23.48;15.32;;;;;;;2.89;100.00;99717.72;4898685;29;20047;-90
2021/12/04 02:33:40;;;;;;;18.73;13.90;;;;;;;2.24;100.00;99621.34;4882913;29;20466;-91
2021/12/04 02:36:09;;;;;;;20.23;14.63;;;;;;;2.26;100.00;99617.47;4898014;29;20027;-91
2021/12/04 02:38:36;;;;;;;22.10;14.68;;;;;;;2.58;100.00;99658.13;4898366;29;20041;-91
2021/12/04 02:41:02;;;;;;;19.40;14.15;;;;;;;2.72;100.00;99679.66;4883245;29;20080;-91
2021/12/04 02:43:32;;;;;;;21.15;14.68;;;;;;;2.81;100.00;99698.06;4898752;29;20472;-91
2021/12/04 02:45:58;;;;;;;21.75;14.20;;;;;;;2.67;100.00;99666.00;4898449;29;20024;-89
2021/12/04 02:48:24;;;;;;;21.00;14.30;;;;;;;2.24;100.00;99603.44;4898203;29;20032;-90
2021/12/04 02:50:49;;;;;;;19.88;14.00;;;;;;;2.88;100.00;99695.47;4897834;29;20020;-90
2021/12/04 02:53:18;;;;;;;20.27;14.82;;;;;;;2.26;100.00;99601.41;4866459;29;20063;-90
2021/12/04 02:55:47;;;;;;;18.42;12.82;;;;;;;2.28;100.00;99599.34;4897769;29;20526;-90
2021/12/04 02:58:16;;;;;;;19.95;14.02;;;;;;;2.69;100.00;99675.53;4882103;29;20025;-90
2021/12/04 03:00:51;;;;;;;20.45;13.85;;;;;;;2.15;100.00;99598.41;4897686;29;20024;-90
2021/12/04 03:03:19;;;;;;;21.17;14.25;;;;;;;2.24;100.00;99605.28;4882216;29;20160;-90
2021/12/04 03:05:49;;;;;;;20.73;13.70;;;;;;;2.68;100.00;99670.34;4897697;29;20031;-91
2021/12/04 03:08:16;;;;;;;22.15;15.13;;;;;;;2.26;100.00;99603.25;4897716;29;20050;-90
2021/12/04 03:10:42;;;;;;;21.70;14.48;;;;;;;2.92;100.00;99696.75;4897637;29;20028;-91
2021/12/04 03:13:09;;;;;;;18.52;14.05;;;;;;;2.70;100.00;99652.22;4882383;29;20032;-91
2021/12/04 03:15:38;;;;;;;19.20;14.43;;;;;;;2.92;100.00;99688.72;4867494;29;20064;-90
2021/12/04 03:18:05;;;;;;;19.63;14.32;;;;;;;2.49;100.00;99621.78;4898274;29;20037;-91
2021/12/04 03:20:41;;;;;;;19.50;13.27;;;;;;;2.26;100.00;99582.66;4882999;29;20032;-91
2021/12/04 03:23:15;;;;;;;17.45;13.75;;;;;;;2.32;100.00;99591.78;4898113;29;20076;-90
2021/12/04 03:25:50;;;;;;;19.08;12.55;;;;;;;2.35;100.00;99595.91;4898265;29;20028;-91
2021/12/04 03:28:18;;;;;;;19.17;13.30;;;;;;;2.28;100.00;99585.97;4883192;29;20533;-91
2021/12/04 03:31:03;;;;;;;17.92;12.88;;;;;;;2.25;100.00;99566.81;4882459;29;20037;-90
2021/12/04 03:41:27;;;;;;;13.80;10.88;;;;;;;2.63;100.00;99626.22;4898454;29;20036;-91
2021/12/04 03:43:53;;;;;;;14.45;11.07;;;;;;;2.67;100.00;99632.00;4882103;29;20027;-91
2021/12/04 03:46:24;;;;;;;13.20;10.18;;;;;;;2.69;100.00;99629.13;4897633;29;20028;-91
2021/12/04 03:48:53;;;;;;;15.88;10.45;;;;;;;2.30;100.00;99567.03;4897534;29;20378;-91
2021/12/04 03:51:22;;;;;;;13.90;9.95;;;;;;;2.52;100.00;99594.59;4897713;29;20367;-91
2021/12/04 03:53:55;;;;;;;12.68;10.05;;;;;;;2.51;100.00;99586.78;4897964;29;20072;-91
2021/12/04 03:56:24;;;;;;;12.95;9.93;;;;;;;2.79;100.00;99627.81;4867294;29;20359;-91
2021/12/04 03:58:53;;;;;;;11.98;9.05;;;;;;;2.70;100.00;99612.06;4866868;29;20029;-90
2021/12/04 04:01:22;;;;;;;14.30;10.13;;;;;;;2.32;100.00;99553.47;4897114;29;20386;-91
2021/12/04 04:03:48;;;;;;;13.27;9.70;;;;;;;2.65;100.00;99618.00;4897154;29;20470;-91
2021/12/04 04:06:16;;;;;;;11.15;9.05;;;;;;;2.71;100.00;99616.41;4897517;29;20020;-91
2021/12/04 04:08:51;;;;;;;13.75;9.30;;;;;;;2.56;100.00;99608.44;4897881;29;20044;-91
2021/12/04 04:11:17;;;;;;;13.35;8.80;;;;;;;2.44;100.00;99574.16;4897209;29;20051;-91
2021/12/04 04:13:44;;;;;;;12.15;8.93;;;;;;;2.32;100.00;99548.94;4866518;29;20076;-92
2021/12/04 04:16:14;;;;;;;10.48;8.52;;;;;;;2.34;100.00;99538.88;4897330;29;20025;-91
2021/12/04 04:18:43;;;;;;;9.43;7.85;;;;;;;2.98;100.00;99642.38;4896727;29;20123;-91
2021/12/04 04:21:08;;;;;;;11.50;9.10;;;;;;;2.89;100.00;99624.75;4897190;29;20021;-93
2021/12/04 04:23:35;;;;;;;12.27;8.90;;;;;;;2.84;100.00;99602.28;4882631;29;20051;-92
2021/12/04 04:26:02;;;;;;;10.30;8.40;;;;;;;2.75;100.00;99597.06;4897783;29;20021;-91
2021/12/04 04:28:27;;;;;;;9.18;7.53;;;;;;;2.24;100.00;99519.63;4897694;29;20386;-91
2021/12/04 04:30:55;;;;;;;10.55;7.70;;;;;;;2.77;100.00;99596.88;4896861;29;20035;-91
2021/12/04 04:33:22;;;;;;;9.57;7.70;;;;;;;2.28;100.00;99524.41;4897534;29;20027;-92
2021/12/04 04:35:57;;;;;;;10.80;8.20;;;;;;;2.63;100.00;99571.84;4882402;29;20378;-91
2021/12/04 04:38:45;;;;;;;9.23;7.63;;;;;;;2.28;100.00;99513.69;4897532;29;20466;-92
2021/12/04 05:11:22;;;;;;;10.93;7.35;;;;;;;2.42;100.00;99511.13;4917809;29;20054;-91
2021/12/04 05:13:51;;;;;;;8.82;6.50;;;;;;;2.76;100.00;99568.41;4916154;29;20028;-91
2021/12/04 05:16:20;;;;;;;8.52;6.57;;;;;;;2.41;100.00;99502.28;4903545;29;20048;-91
2021/12/04 05:18:54;;;;;;;8.00;6.30;;;;;;;2.81;100.00;99558.78;4919240;29;20059;-91
2021/12/04 05:21:20;;;;;;;7.30;5.85;;;;;;;2.88;100.00;99556.16;4903556;29;20557;-91
2021/12/04 05:23:51;;;;;;;6.22;5.60;;;;;;;2.39;100.00;99474.88;4918775;29;20028;-91
2021/12/04 05:26:24;;;;;;;7.80;5.55;;;;;;;2.85;100.00;99561.91;4887538;29;20470;-91
2021/12/04 05:28:51;;;;;;;6.07;5.38;;;;;;;2.47;100.00;99495.31;4902572;29;20088;-90
2021/12/04 05:31:17;;;;;;;5.88;5.28;;;;;;;2.87;100.00;99559.84;4887937;29;20127;-90
2021/12/04 05:33:43;;;;;;;5.90;5.30;;;;;;;2.42;100.00;99497.72;4888865;29;20476;-91
2021/12/04 05:36:10;;;;;;;5.43;4.90;;;;;;;2.48;100.00;99507.69;4888940;29;20084;-91
2021/12/04 05:38:37;;;;;;;6.72;5.47;;;;;;;2.47;100.00;99498.00;4903791;29;20070;-91
2021/12/04 05:41:04;;;;;;;5.95;5.07;;;;;;;3.08;100.00;99587.59;4902862;29;20434;-91
2021/12/04 05:43:34;;;;;;;8.27;4.97;;;;;;;3.10;100.00;99599.78;4887264;29;20032;-90
2021/12/04 05:48:49;;;;;;;8.93;5.28;;;;;;;2.70;100.00;99535.22;4920352;29;20394;-90
2021/12/04 05:54:19;;;;;;;6.65;5.07;;;;;;;2.69;100.00;99519.31;4919408;29;20099;-90
2021/12/04 05:56:45;;;;;;;7.15;5.10;;;;;;;2.49;100.00;99481.72;4918436;29;20054;-91
2021/12/04 05:59:10;;;;;;;6.35;4.90;;;;;;;2.79;100.00;99527.84;4886832;29;20060;-90
2021/12/04 06:01:36;;;;;;;6.18;5.18;;;;;;;2.41;100.00;99469.31;4917787;29;20074;-90
2021/12/04 06:04:05;;;;;;;6.25;5.07;;;;;;;2.42;100.00;99465.59;4886116;29;20028;-91
2021/12/04 06:06:34;;;;;;;7.25;5.57;;;;;;;2.46;100.00;99481.06;4902273;29;20028;-90
2021/12/04 06:09:00;;;;;;;7.00;5.38;;;;;;;2.44;100.00;99471.59;4902654;29;20488;-91
2021/12/04 06:11:26;;;;;;;9.65;6.00;;;;;;;2.91;100.00;99550.41;4902797;29;20032;-91
2021/12/04 06:13:56;;;;;;;9.48;5.97;;;;;;;2.66;100.00;99496.47;4887357;29;20032;-91
2021/12/04 06:16:22;;;;;;;6.65;5.10;;;;;;;2.92;100.00;99530.63;4918381;29;20575;-90
2021/12/04 06:18:52;;;;;;;6.20;5.32;;;;;;;2.58;100.00;99477.88;4902164;29;20027;-91
2021/12/04 06:24:05;;;;;;;6.43;5.40;;;;;;;2.85;100.00;99513.69;4906042;29;20066;-92
2021/12/04 06:26:36;;;;;;;6.93;5.22;;;;;;;3.01;100.00;99535.81;4918449;29;20355;-92
2021/12/04 06:29:05;;;;;;;6.57;5.53;;;;;;;2.61;100.00;99475.63;4902742;29;20019;-93
2021/12/04 06:31:36;;;;;;;7.90;5.88;;;;;;;2.84;100.00;99512.00;4919740;29;20028;-92
2021/12/04 06:34:04;;;;;;;7.22;5.55;;;;;;;2.59;100.00;99468.81;4918883;29;20118;-94
2021/12/04 06:37:20;;;;;;;7.00;5.57;;;;;;;2.79;100.00;99507.25;4919444;29;20020;-95
2021/12/04 06:39:51;;;;;;;7.63;5.45;;;;;;;3.23;100.00;99577.56;4896357;29;20390;-94
2021/12/04 06:42:54;;;;;;;;;;;;;;;3.26;100.00;99576.34;4919418;29;20056;-95
2021/12/04 06:45:47;;;;;;;6.85;5.15;;;;;;;3.25;100.00;99580.88;4919510;29;19907;-94
2021/12/04 07:21:46;;;;;;;9.38;6.43;;;;;;;3.25;100.00;99578.19;4920129;29;20039;-96
2021/12/04 07:24:46;;;;;;;9.23;6.15;;;;;;;3.29;100.00;99575.94;4917295;29;20047;-93
2021/12/04 07:27:53;;;;;;;9.40;6.13;;;;;;;3.07;100.00;99538.53;4902416;29;20533;-94
2021/12/04 07:33:50;;;;;;;8.95;5.88;;;;;;;3.12;100.00;99538.75;4919304;29;20111;-94
2021/12/04 07:37:01;;;;;;;;;;;;;;;;;;;;;
2021/12/04 07:39:32;;;;;;;8.10;5.28;;;;;;;2.72;100.00;99481.47;4910399;29;20531;-94
2021/12/04 07:42:43;;;;;;;7.35;5.70;;;;;;;3.16;100.00;99549.91;4872283;29;20036;-94
2021/12/04 07:45:31;;;;;;;9.48;5.60;;;;;;;2.96;100.00;99505.06;4891466;29;20422;-93
2021/12/04 07:51:38;;;;;;;8.32;5.32;;;;;;;3.42;100.00;99564.44;4893605;29;20036;-93
2021/12/04 07:54:49;;;;;;;;;;;;;;;;;;;;;
2021/12/04 07:57:33;;;;;;;8.70;5.47;;;;;;;2.78;100.00;99460.06;4920324;29;20537;-93
2021/12/04 08:00:14;;;;;;;7.93;5.40;;;;;;;3.10;100.00;99491.72;4891062;29;20036;-93
2021/12/04 08:02:55;;;;;;;9.00;6.05;;;;;;;3.25;100.00;99511.19;4892144;29;20390;-93
2021/12/04 08:05:28;;;;;;;8.45;5.53;;;;;;;3.17;100.00;99495.25;4920529;29;20115;-90
2021/12/04 08:08:32;;;;;;;8.70;5.80;;;;;;;3.01;100.00;99458.91;4921933;29;20032;-90
2021/12/04 08:11:24;;;;;;;9.25;5.78;;;;;;;3.65;100.00;99556.91;4921681;29;20389;-91
2021/12/04 08:13:57;;;;;;;9.65;5.68;;;;;;;3.01;100.00;99450.88;4893069;29;20111;-90
2021/12/04 08:16:26;;;;;;;9.30;5.90;;;;;;;3.09;100.00;99439.16;4922849;29;20477;-88
2021/12/04 08:19:03;;;;;;;7.95;5.53;;;;;;;3.55;100.00;99504.69;4890822;29;20032;-90
2021/12/04 08:21:40;;;;;;;7.20;5.43;;;;;;;3.53;100.00;99488.78;4927823;29;20025;-90
2021/12/04 08:24:06;;;;;;;8.02;5.78;;;;;;;3.22;100.00;99433.84;4898117;29;20036;-90
2021/12/04 08:26:37;;;;;;;8.40;6.13;;;;;;;3.24;100.00;99437.13;4913519;29;20024;-90
2021/12/04 08:29:07;;;;;;;8.20;6.20;;;;;;;3.26;100.00;99419.03;4918196;29;20016;-93
2021/12/04 08:31:37;;;;;;;7.32;5.85;;;;;;;3.60;100.00;99457.44;4911978;29;20035;-92
2021/12/04 08:34:10;;;;;;;7.85;5.93;;;;;;;3.34;100.00;99402.72;4926474;29;20020;-92
2021/12/04 08:36:51;;;;;;;;;;;;;;;;;;;;;
2021/12/04 08:39:18;;;;;;;7.32;5.72;;;;;;;3.53;100.00;99418.22;4923247;29;20103;-92
2021/12/04 08:41:51;;;;;;;6.72;5.35;;;;;;;3.77;100.00;99452.50;4888522;29;20039;-93
2021/12/04 08:44:18;;;;;;;7.07;5.70;;;;;;;3.83;100.00;99453.56;4890949;29;20039;-93
2021/12/04 08:46:52;;;;;;;7.22;5.40;;;;;;;3.51;100.00;99397.81;4921307;29;20028;-92
2021/12/04 08:49:17;;;;;;;10.00;6.30;;;;;;;3.54;100.00;99414.50;4918520;29;20023;-92
2021/12/04 08:51:46;;;;;;;6.38;5.13;;;;;;;3.91;100.00;99457.88;4923760;29;20095;-93
2021/12/04 08:54:11;;;;;;;5.57;4.88;;;;;;;3.77;100.00;99431.03;4907593;29;20366;-93
2021/12/04 08:56:43;;;;;;;6.70;4.97;;;;;;;3.69;100.00;99388.31;4925144;29;20024;-93
2021/12/04 08:59:09;;;;;;;6.27;5.37;;;;;;;4.16;100.00;99450.03;4924543;29;20377;-89
2021/12/04 09:02:43;;;;;;;;;;;;;;;;;;;;;
2021/12/04 09:06:28;;;;;;;;;;;;;;;;;;;;;
2021/12/04 10:46:43;;;;;;;11.32;7.55;;;;;;;4.63;100.00;99397.03;4852245;29;20513;-95
2021/12/04 10:49:27;;;;;;;;;;;;;;;;;;;;;
2021/12/04 11:02:58;;;;;;;;;;;;;;;;;;;;;
2021/12/04 11:22:16;;;;;;;7.50;6.40;;;;;;;5.02;100.00;99293.09;4878352;29;20059;-95
2021/12/04 11:53:51;;;;;;;;;;;;;;;;;;;;;
2021/12/04 11:56:24;;;;;;;9.88;7.47;;;;;;;4.32;100.00;99205.25;4877014;29;20397;-91
2021/12/04 11:59:12;;;;;;;10.20;7.43;;;;;;;4.34;100.00;99213.94;4917078;29;20016;-92
2021/12/04 12:02:03;;;;;;;10.38;7.65;;;;;;;4.29;100.00;99212.91;4887924;29;20342;-96
2021/12/04 12:07:58;;;;;;;10.52;8.20;;;;;;;4.56;100.00;99265.47;4893772;29;20043;-90
2021/12/04 12:16:39;;;;;;;11.13;8.50;;;;;;;4.14;100.00;99203.28;4918159;29;20064;-92
2021/12/04 12:20:57;;;;;;;11.20;8.70;;;;;;;3.97;100.00;99181.47;4903018;29;20020;-94
2021/12/04 15:28:39;;;;;;;;;;;;;;;;;;;;;
2021/12/04 15:45:38;;;;;;;14.93;5.30;;;;;;;3.99;100.00;99382.53;4891196;29;20056;-94
2021/12/04 16:13:13;;;;;;;17.95;5.55;;;;;;;3.40;100.00;99346.66;4877809;29;20045;-94
2021/12/04 16:16:29;;;;;;;20.13;4.47;;;;;;;3.34;100.00;99346.44;4862757;29;20037;-94
2021/12/04 16:19:14;;;;;;;15.02;4.53;;;;;;;3.48;100.00;99394.69;4878551;29;20101;-94
2021/12/04 16:22:15;;;;;;;15.30;4.65;;;;;;;3.18;100.00;99367.44;4879323;29;20037;-94
2021/12/04 16:40:07;;;;;;;17.40;4.60;;;;;;;2.85;100.00;99411.88;4898761;29;20039;-95
2021/12/04 16:47:38;;;;;;;22.65;5.20;;;;;;;3.06;100.00;99444.94;4899024;29;20045;-95
2021/12/04 16:57:27;;;;;;;;;;;;;;;3.37;100.00;99518.66;4859879;29;20529;-95
2021/12/04 17:17:31;;;;;;;23.92;5.85;;;;;;;2.36;100.00;99439.63;4759724;30;20070;-94
2021/12/04 17:20:35;;;;;;;24.08;5.40;;;;;;;2.40;100.00;99454.28;4789152;30;20096;-95
2021/12/04 17:24:15;;;;;;;;;;;;;;;;;;;;;
2021/12/04 17:27:40;;;;;;;;;;;;;;;;;;;;;
2021/12/04 17:33:40;;;;;;;21.45;5.18;;;;;;;2.85;100.00;99545.81;4878588;29;20460;-94
2021/12/04 17:36:14;;;;;;;19.73;5.38;;;;;;;2.07;100.00;99446.84;4900162;29;20045;-94
2021/12/04 17:38:46;;;;;;;26.50;5.38;;;;;;;2.06;100.00;99459.38;4900422;29;20454;-94
2021/12/04 17:41:37;;;;;;;22.38;4.88;;;;;;;2.45;100.00;99527.63;4900430;29;20032;-94
2021/12/04 17:44:27;;;;;;;21.63;5.30;;;;;;;2.23;100.00;99485.84;4913726;29;20044;-94
2021/12/04 17:47:20;;;;;;;29.48;5.43;;;;;;;1.93;100.00;99460.13;4888235;29;20043;-94
2021/12/04 17:49:59;;;;;;;23.50;5.53;;;;;;;1.97;100.00;99468.59;4888179;29;20044;-95
2021/12/04 17:56:00;;;;;;;19.20;5.20;;;;;;;2.36;100.00;99536.00;4918600;29;20205;-94
2021/12/04 18:02:50;;;;;;;25.58;5.55;;;;;;;2.64;100.00;99576.16;4879442;29;20064;-95
2021/12/04 18:09:49;;;;;;;;;;;;;;;;;;;;;
2021/12/04 18:13:16;;;;;;;;;;;;;;;;;;;;;
2021/12/04 18:16:36;;;;;;;22.42;5.72;;;;;;;2.06;100.00;99488.81;4880866;29;20040;-96
2021/12/04 18:23:08;;;;;;;26.00;6.60;;;;;;;2.05;100.00;99491.69;4797975;29;20126;-94
2021/12/04 18:29:41;;;;;;;;;;;;;;;;;;;;;
2021/12/04 18:32:34;;;;;;;21.63;6.47;;;;;;;2.03;100.00;99509.78;4854353;29;20451;-94
2021/12/04 18:35:19;;;;;;;24.85;7.45;;;;;;;2.38;100.00;99564.22;4845511;29;20041;-94
2021/12/04 18:37:59;;;;;;;23.58;7.45;;;;;;;2.43;100.00;99560.97;4845381;29;20411;-94
2021/12/04 18:41:20;;;;;;;25.85;7.50;;;;;;;2.42;100.00;99576.22;4842959;29;20049;-95
2021/12/04 18:44:17;;;;;;;;;;;;;;;;;;;;;
2021/12/04 18:47:45;;;;;;;23.17;7.68;;;;;;;1.94;100.00;99509.09;4860073;29;20074;-94
2021/12/04 18:50:36;;;;;;;28.02;8.05;;;;;;;1.87;100.00;99502.84;4847727;29;20049;-93
2021/12/04 18:53:58;;;;;;;29.40;9.00;;;;;;;1.86;100.00;99503.88;4845050;29;20042;-94
2021/12/04 18:57:06;;;;;;;;;;;;;;;;;;;;;
2021/12/04 19:03:01;;;;;;;26.08;8.43;;;;;;;1.80;100.00;99513.50;4860286;29;20380;-94
2021/12/04 19:06:27;;;;;;;23.88;8.55;;;;;;;1.71;100.00;99503.94;4819674;29;20424;-94
2021/12/04 19:09:00;;;;;;;30.48;9.63;;;;;;;1.83;100.00;99512.28;4826823;29;20049;-94
2021/12/04 19:11:53;;;;;;;35.25;10.00;;;;;;;1.84;100.00;99509.41;4851667;29;20053;-94
2021/12/04 19:14:50;;;;;;;36.00;9.77;;;;;;;2.51;100.00;99614.41;4844949;29;20052;-94
2021/12/04 19:25:01;;;;;;;27.63;7.80;;;;;;;2.30;100.00;99603.69;4836074;29;20060;-94
2021/12/04 19:27:59;;;;;;;25.05;7.93;;;;;;;2.21;100.00;99577.03;4856930;29;20380;-94
2021/12/04 19:57:27;;;;;;;;;;;;;;;;;;;;;
2021/12/04 20:19:07;;;;;;;;;;;;;;;;;;;;;
2021/12/04 20:22:02;;;;;;;30.48;9.75;;;;;;;1.74;100.00;99520.44;4916991;29;20032;-93
2021/12/04 20:24:38;;;;;;;26.33;9.50;;;;;;;1.76;100.00;99520.25;4900845;29;20103;-94
2021/12/04 20:27:24;;;;;;;30.65;10.10;;;;;;;1.60;100.00;99501.78;4900985;29;20028;-94
2021/12/04 20:33:29;;;;;;;30.48;10.73;;;;;;;2.12;100.00;99582.75;4918111;29;20046;-93
2021/12/04 21:06:56;;;;;;;25.80;8.25;;;;;;;1.44;100.00;99500.97;4921095;29;20036;-93
2021/12/04 21:10:35;;;;;;;25.00;7.30;;;;;;;1.60;100.00;99531.19;4904392;29;20036;-92
2021/12/04 21:38:52;;;;;;;21.63;6.13;;;;;;;1.21;100.00;99538.53;4920360;29;20043;-92
2021/12/04 21:50:07;;;;;;;20.33;6.95;;;;;;;1.65;100.00;99607.13;4904243;29;20413;-89
2021/12/04 21:52:37;;;;;;;18.17;5.70;;;;;;;1.71;100.00;99616.25;4902616;29;20458;-90
2021/12/04 21:55:34;;;;;;;22.13;6.00;;;;;;;1.31;100.00;99543.59;4902374;29;20036;-91
2021/12/04 22:15:11;;;;;;;20.75;5.60;;;;;;;1.43;100.00;99534.06;4895565;29;20044;-91
2021/12/04 22:18:11;;;;;;;17.45;5.47;;;;;;;1.50;100.00;99524.28;4902167;29;20565;-90
2021/12/04 22:59:51;;;;;;;14.15;4.90;;;;;;;2.42;100.00;99627.09;4918025;29;20043;-91
2021/12/04 23:02:26;;;;;;;24.80;5.25;;;;;;;2.39;100.00;99614.09;4901417;29;20028;-91
2021/12/04 23:13:10;;;;;;;22.75;5.35;;;;;;;2.66;100.00;99672.38;4903836;29;20505;-91
2021/12/04 23:16:03;;;;;;;22.10;5.05;;;;;;;2.08;100.00;99580.44;4901060;29;20050;-91
2021/12/04 23:35:26;;;;;;;19.75;5.18;;;;;;;2.60;100.00;99664.09;4864814;29;20040;-90
2021/12/04 23:38:15;;;;;;;19.55;4.55;;;;;;;2.43;100.00;99642.09;4900526;29;20465;-90
2021/12/04 23:54:46;;;;;;;15.68;4.22;;;;;;;2.02;100.00;99618.66;4916981;29;20601;-91
